sensor_id;sensor_type;location;lat;lon;timestamp;pressure;altitude;pressure_sealevel;temperature;humidity
21449;BME280;10885;52.830;13.788;2023-05-12T05:12:02;101519.06;;;12.38;56.52
21449;BME280;10885;52.830;13.788;2023-05-12T05:17:24;101527.66;;;12.39;56.04
21449;BME280;10885;52.830;13.788;2023-05-12T05:22:46;101524.88;;;12.62;54.42
21449;BME280;10885;52.830;13.788;2023-05-12T05:28:09;101530.00;;;12.89;53.69
21449;BME280;10885;52.830;13.788;2023-05-12T05:33:31;101531.53;;;13.13;53.54
21449;BME280;10885;52.830;13.788;2023-05-12T05:38:52;101532.69;;;13.32;52.84
21449;BME280;10885;52.830;13.788;2023-05-12T05:44:14;101543.81;;;13.31;52.33
21449;BME280;10885;52.830;13.788;2023-05-12T05:49:35;101537.66;;;13.57;52.42
21449;BME280;10885;52.830;13.788;2023-05-12T05:54:58;101545.06;;;13.66;51.99
21449;BME280;10885;52.830;13.788;2023-05-12T06:00:21;101550.41;;;13.84;51.71
21449;BME280;10885;52.830;13.788;2023-05-12T06:05:44;101560.13;;;14.03;50.35
21449;BME280;10885;52.830;13.788;2023-05-12T06:11:07;101559.53;;;14.37;49.99
21449;BME280;10885;52.830;13.788;2023-05-12T06:16:28;101562.34;;;14.41;49.78
21449;BME280;10885;52.830;13.788;2023-05-12T06:21:49;101570.47;;;14.62;49.36
21449;BME280;10885;52.830;13.788;2023-05-12T06:27:12;101564.19;;;14.74;49.20
21449;BME280;10885;52.830;13.788;2023-05-12T06:32:32;101575.59;;;15.08;48.67
21449;BME280;10885;52.830;13.788;2023-05-12T06:37:53;101581.38;;;15.36;48.46
21449;BME280;10885;52.830;13.788;2023-05-12T06:43:14;101579.53;;;15.66;48.30
21449;BME280;10885;52.830;13.788;2023-05-12T06:48:37;101586.63;;;16.03;48.12
21449;BME280;10885;52.830;13.788;2023-05-12T06:54:02;101587.09;;;16.46;46.81
21449;BME280;10885;52.830;13.788;2023-05-12T06:59:24;101573.38;;;16.65;46.98
21449;BME280;10885;52.830;13.788;2023-05-12T07:04:45;101581.94;;;17.00;45.32
21449;BME280;10885;52.830;13.788;2023-05-12T07:10:06;101576.78;;;17.57;44.74
21449;BME280;10885;52.830;13.788;2023-05-12T07:15:28;101570.16;;;18.03;43.65
21449;BME280;10885;52.830;13.788;2023-05-12T07:20:50;101571.13;;;18.47;41.62
21449;BME280;10885;52.830;13.788;2023-05-12T07:26:11;101576.34;;;19.13;40.47
21449;BME280;10885;52.830;13.788;2023-05-12T07:31:32;101584.88;;;20.57;37.94
21449;BME280;10885;52.830;13.788;2023-05-12T07:36:53;101594.13;;;23.76;32.04
21449;BME280;10885;52.830;13.788;2023-05-12T07:42:14;101591.03;;;25.71;29.00
21449;BME280;10885;52.830;13.788;2023-05-12T07:47:35;101598.13;;;26.76;26.13
21449;BME280;10885;52.830;13.788;2023-05-12T07:52:56;101590.13;;;26.61;27.37
21449;BME280;10885;52.830;13.788;2023-05-12T07:58:17;101595.38;;;25.70;27.98
21449;BME280;10885;52.830;13.788;2023-05-12T08:03:38;101586.31;;;24.26;30.59
21449;BME280;10885;52.830;13.788;2023-05-12T08:08:59;101578.19;;;23.65;30.51
21449;BME280;10885;52.830;13.788;2023-05-12T08:14:20;101579.03;;;23.21;31.32
21449;BME280;10885;52.830;13.788;2023-05-12T08:19:42;101583.13;;;23.50;30.46
21449;BME280;10885;52.830;13.788;2023-05-12T08:25:03;101596.03;;;23.85;30.08
21449;BME280;10885;52.830;13.788;2023-05-12T08:30:26;101582.47;;;24.06;30.19
21449;BME280;10885;52.830;13.788;2023-05-12T08:35:47;101581.94;;;24.27;29.41
21449;BME280;10885;52.830;13.788;2023-05-12T08:46:35;101582.03;;;24.86;27.74
21449;BME280;10885;52.830;13.788;2023-05-12T08:51:58;101580.56;;;25.07;26.61
21449;BME280;10885;52.830;13.788;2023-05-12T08:57:21;101579.97;;;24.64;27.53
21449;BME280;10885;52.830;13.788;2023-05-12T09:02:42;101576.59;;;25.36;26.93
21449;BME280;10885;52.830;13.788;2023-05-12T09:08:12;101577.19;;;25.87;26.30
21449;BME280;10885;52.830;13.788;2023-05-12T09:19:09;101567.34;;;26.61;24.74
21449;BME280;10885;52.830;13.788;2023-05-12T09:24:38;101567.41;;;26.69;23.70
21449;BME280;10885;52.830;13.788;2023-05-12T09:29:59;101566.00;;;25.27;24.90
21449;BME280;10885;52.830;13.788;2023-05-12T09:35:20;101553.28;;;25.61;24.72
21449;BME280;10885;52.830;13.788;2023-05-12T09:40:41;101552.31;;;25.53;22.35
21449;BME280;10885;52.830;13.788;2023-05-12T09:46:04;101561.28;;;25.73;20.66
21449;BME280;10885;52.830;13.788;2023-05-12T09:51:25;101563.38;;;25.27;20.27
21449;BME280;10885;52.830;13.788;2023-05-12T09:56:47;101551.88;;;25.19;21.19
21449;BME280;10885;52.830;13.788;2023-05-12T10:02:08;101549.91;;;25.74;20.58
21449;BME280;10885;52.830;13.788;2023-05-12T10:07:32;101556.97;;;25.82;20.68
21449;BME280;10885;52.830;13.788;2023-05-12T10:12:54;101549.97;;;25.79;21.21
21449;BME280;10885;52.830;13.788;2023-05-12T10:18:16;101544.00;;;24.53;22.31
21449;BME280;10885;52.830;13.788;2023-05-12T10:23:39;101543.69;;;25.63;21.88
21449;BME280;10885;52.830;13.788;2023-05-12T10:29:03;101548.97;;;25.69;21.75
21449;BME280;10885;52.830;13.788;2023-05-12T10:34:36;101559.66;;;25.86;21.96
21449;BME280;10885;52.830;13.788;2023-05-12T10:39:57;101540.31;;;25.05;21.71
21449;BME280;10885;52.830;13.788;2023-05-12T10:45:22;101531.13;;;25.36;21.15
21449;BME280;10885;52.830;13.788;2023-05-12T10:50:53;101535.81;;;25.65;20.95
21449;BME280;10885;52.830;13.788;2023-05-12T10:56:20;101523.78;;;25.90;20.67
21449;BME280;10885;52.830;13.788;2023-05-12T11:01:56;101526.56;;;26.01;20.04
21449;BME280;10885;52.830;13.788;2023-05-12T11:07:23;101529.50;;;24.80;21.53
21449;BME280;10885;52.830;13.788;2023-05-12T11:12:46;101528.91;;;25.73;21.71
21449;BME280;10885;52.830;13.788;2023-05-12T11:18:07;101531.16;;;25.40;20.47
21449;BME280;10885;52.830;13.788;2023-05-12T11:23:29;101528.22;;;25.91;20.68
21449;BME280;10885;52.830;13.788;2023-05-12T11:28:51;101528.66;;;25.51;20.51
21449;BME280;10885;52.830;13.788;2023-05-12T11:34:12;101533.94;;;26.49;19.78
21449;BME280;10885;52.830;13.788;2023-05-12T11:39:34;101527.47;;;25.25;20.53
21449;BME280;10885;52.830;13.788;2023-05-12T11:44:56;101530.13;;;26.07;19.94
21449;BME280;10885;52.830;13.788;2023-05-12T11:50:23;101526.31;;;25.79;19.73
21449;BME280;10885;52.830;13.788;2023-05-12T11:55:53;101534.44;;;25.23;21.02
21449;BME280;10885;52.830;13.788;2023-05-12T12:01:15;101526.56;;;25.21;20.66
21449;BME280;10885;52.830;13.788;2023-05-12T12:06:42;101530.78;;;27.04;20.02
21449;BME280;10885;52.830;13.788;2023-05-12T12:12:04;101538.50;;;29.67;15.64
21449;BME280;10885;52.830;13.788;2023-05-12T12:17:26;101526.47;;;30.42;16.04
21449;BME280;10885;52.830;13.788;2023-05-12T12:22:51;101539.84;;;27.94;17.40
21449;BME280;10885;52.830;13.788;2023-05-12T12:28:13;101532.41;;;26.84;19.12
21449;BME280;10885;52.830;13.788;2023-05-12T12:33:34;101522.03;;;27.19;20.03
21449;BME280;10885;52.830;13.788;2023-05-12T12:38:55;101531.50;;;26.82;19.20
21449;BME280;10885;52.830;13.788;2023-05-12T12:44:17;101526.50;;;27.35;19.63
21449;BME280;10885;52.830;13.788;2023-05-12T12:49:38;101526.06;;;26.51;19.01
21449;BME280;10885;52.830;13.788;2023-05-12T12:54:59;101515.22;;;26.05;18.77
21449;BME280;10885;52.830;13.788;2023-05-12T13:00:21;101517.50;;;25.74;18.40
21449;BME280;10885;52.830;13.788;2023-05-12T13:05:43;101527.16;;;25.73;19.26
21449;BME280;10885;52.830;13.788;2023-05-12T13:11:04;101527.63;;;25.38;19.01
21449;BME280;10885;52.830;13.788;2023-05-12T13:16:25;101520.78;;;25.51;19.69
21449;BME280;10885;52.830;13.788;2023-05-12T13:21:47;101512.63;;;26.11;19.45
21449;BME280;10885;52.830;13.788;2023-05-12T13:27:09;101511.69;;;26.04;20.14
21449;BME280;10885;52.830;13.788;2023-05-12T13:32:30;101516.16;;;26.16;19.50
21449;BME280;10885;52.830;13.788;2023-05-12T13:37:52;101501.59;;;25.55;20.45
21449;BME280;10885;52.830;13.788;2023-05-12T13:43:12;101502.16;;;26.15;20.69
21449;BME280;10885;52.830;13.788;2023-05-12T13:48:34;101502.19;;;26.20;20.67
21449;BME280;10885;52.830;13.788;2023-05-12T13:53:56;101500.50;;;26.30;19.07
21449;BME280;10885;52.830;13.788;2023-05-12T13:59:16;101497.00;;;26.29;19.56
21449;BME280;10885;52.830;13.788;2023-05-12T14:04:37;101494.50;;;26.49;19.14
21449;BME280;10885;52.830;13.788;2023-05-12T14:09:58;101491.19;;;26.79;20.07
21449;BME280;10885;52.830;13.788;2023-05-12T14:15:20;101484.31;;;27.17;18.70
21449;BME280;10885;52.830;13.788;2023-05-12T14:20:49;101493.09;;;27.17;18.77
21449;BME280;10885;52.830;13.788;2023-05-12T14:26:10;101481.53;;;26.77;19.21
21449;BME280;10885;52.830;13.788;2023-05-12T14:31:31;101493.00;;;26.91;19.50
21449;BME280;10885;52.830;13.788;2023-05-12T14:36:54;101491.28;;;27.07;18.84
21449;BME280;10885;52.830;13.788;2023-05-12T14:42:15;101492.41;;;26.01;18.57
21449;BME280;10885;52.830;13.788;2023-05-12T14:47:36;101481.16;;;26.20;17.97
21449;BME280;10885;52.830;13.788;2023-05-12T14:52:57;101494.28;;;26.17;18.73
21449;BME280;10885;52.830;13.788;2023-05-12T14:58:18;101483.63;;;26.00;18.32
21449;BME280;10885;52.830;13.788;2023-05-12T15:03:41;101495.19;;;25.30;18.71
21449;BME280;10885;52.830;13.788;2023-05-12T15:09:04;101491.22;;;25.72;19.77
21449;BME280;10885;52.830;13.788;2023-05-12T15:14:25;101485.19;;;25.79;18.60
21449;BME280;10885;52.830;13.788;2023-05-12T15:19:46;101483.91;;;25.40;19.03
21449;BME280;10885;52.830;13.788;2023-05-12T15:25:07;101498.84;;;25.46;19.17
21449;BME280;10885;52.830;13.788;2023-05-12T15:30:28;101497.34;;;24.93;19.30
21449;BME280;10885;52.830;13.788;2023-05-12T15:35:49;101499.78;;;24.79;19.84
21449;BME280;10885;52.830;13.788;2023-05-12T15:41:10;101501.06;;;25.09;19.56
21449;BME280;10885;52.830;13.788;2023-05-12T15:46:31;101494.19;;;24.55;19.85
21449;BME280;10885;52.830;13.788;2023-05-12T15:51:52;101497.66;;;24.52;19.53
21449;BME280;10885;52.830;13.788;2023-05-12T15:57:13;101492.50;;;24.58;20.37
21449;BME280;10885;52.830;13.788;2023-05-12T16:02:34;101490.88;;;24.67;19.65
21449;BME280;10885;52.830;13.788;2023-05-12T16:07:56;101490.66;;;24.53;19.78
21449;BME280;10885;52.830;13.788;2023-05-12T16:13:17;101484.16;;;24.26;19.43
21449;BME280;10885;52.830;13.788;2023-05-12T16:18:39;101491.03;;;24.21;20.18
21449;BME280;10885;52.830;13.788;2023-05-12T16:24:00;101492.09;;;23.79;21.03
21449;BME280;10885;52.830;13.788;2023-05-12T16:29:23;101492.75;;;24.17;20.85
21449;BME280;10885;52.830;13.788;2023-05-12T16:34:44;101475.72;;;23.91;21.52
21449;BME280;10885;52.830;13.788;2023-05-12T16:40:06;101481.34;;;23.63;21.70
21449;BME280;10885;52.830;13.788;2023-05-12T16:45:27;101489.31;;;23.71;22.16
21449;BME280;10885;52.830;13.788;2023-05-12T16:50:48;101479.41;;;24.02;21.66
21449;BME280;10885;52.830;13.788;2023-05-12T16:56:09;101476.69;;;23.49;22.09
21449;BME280;10885;52.830;13.788;2023-05-12T17:01:31;101477.69;;;23.10;22.29
21449;BME280;10885;52.830;13.788;2023-05-12T17:06:54;101475.44;;;22.87;22.57
21449;BME280;10885;52.830;13.788;2023-05-12T17:12:15;101481.41;;;22.42;23.29
21449;BME280;10885;52.830;13.788;2023-05-12T17:17:36;101484.53;;;22.26;24.22
21449;BME280;10885;52.830;13.788;2023-05-12T17:22:57;101488.25;;;22.00;24.15
21449;BME280;10885;52.830;13.788;2023-05-12T17:28:18;101491.78;;;22.02;24.62
21449;BME280;10885;52.830;13.788;2023-05-12T17:33:41;101487.25;;;21.62;24.83
21449;BME280;10885;52.830;13.788;2023-05-12T17:39:02;101487.13;;;21.57;25.14
21449;BME280;10885;52.830;13.788;2023-05-12T17:44:23;101488.13;;;21.62;26.00
21449;BME280;10885;52.830;13.788;2023-05-12T17:49:44;101493.31;;;21.29;25.95
21449;BME280;10885;52.830;13.788;2023-05-12T17:55:05;101491.88;;;21.10;26.66
21449;BME280;10885;52.830;13.788;2023-05-12T18:00:26;101504.22;;;20.85;27.70
21449;BME280;10885;52.830;13.788;2023-05-12T18:05:49;101510.69;;;20.70;28.04
21449;BME280;10885;52.830;13.788;2023-05-12T18:11:10;101513.22;;;20.68;28.41
21449;BME280;10885;52.830;13.788;2023-05-12T18:16:31;101521.16;;;20.73;28.69
21449;BME280;10885;52.830;13.788;2023-05-12T18:21:52;101522.25;;;20.79;29.09
21449;BME280;10885;52.830;13.788;2023-05-12T18:27:13;101534.03;;;20.41;29.42
21449;BME280;10885;52.830;13.788;2023-05-12T18:32:34;101535.84;;;20.16;29.97
21449;BME280;10885;52.830;13.788;2023-05-12T18:37:55;101545.38;;;20.16;30.51
21449;BME280;10885;52.830;13.788;2023-05-12T18:43:16;101555.13;;;20.23;30.94
21449;BME280;10885;52.830;13.788;2023-05-12T18:48:38;101562.94;;;20.21;31.16
21449;BME280;10885;52.830;13.788;2023-05-12T18:53:59;101564.47;;;20.16;31.33
21449;BME280;10885;52.830;13.788;2023-05-12T18:59:20;101572.13;;;19.86;31.71
21449;BME280;10885;52.830;13.788;2023-05-12T19:04:41;101576.31;;;19.82;31.71
21449;BME280;10885;52.830;13.788;2023-05-12T19:10:02;101579.91;;;19.62;32.19
21449;BME280;10885;52.830;13.788;2023-05-12T19:15:23;101591.41;;;19.44;32.47
21449;BME280;10885;52.830;13.788;2023-05-12T19:20:44;101589.09;;;19.30;32.69
21449;BME280;10885;52.830;13.788;2023-05-12T19:26:05;101595.84;;;19.24;33.01
21449;BME280;10885;52.830;13.788;2023-05-12T19:31:27;101597.97;;;19.12;33.28
21449;BME280;10885;52.830;13.788;2023-05-12T19:36:50;101600.22;;;19.03;33.29
21449;BME280;10885;52.830;13.788;2023-05-12T19:42:11;101610.22;;;18.94;34.19
21449;BME280;10885;52.830;13.788;2023-05-12T19:47:32;101601.69;;;18.75;34.34
21449;BME280;10885;52.830;13.788;2023-05-12T19:52:54;101604.03;;;18.69;34.79
21449;BME280;10885;52.830;13.788;2023-05-12T19:58:15;101611.00;;;18.49;34.98
21449;BME280;10885;52.830;13.788;2023-05-12T20:03:36;101619.09;;;18.36;35.21
21449;BME280;10885;52.830;13.788;2023-05-12T20:08:57;101613.31;;;18.22;35.51
21449;BME280;10885;52.830;13.788;2023-05-12T20:14:18;101623.25;;;18.11;35.90
21449;BME280;10885;52.830;13.788;2023-05-12T20:19:39;101627.91;;;17.99;36.30
21449;BME280;10885;52.830;13.788;2023-05-12T20:24:59;101621.94;;;17.82;36.46
21449;BME280;10885;52.830;13.788;2023-05-12T20:30:25;101617.69;;;17.64;37.27
21449;BME280;10885;52.830;13.788;2023-05-12T20:35:47;101627.53;;;17.72;37.23
21449;BME280;10885;52.830;13.788;2023-05-12T20:41:08;101634.88;;;17.62;37.47
21449;BME280;10885;52.830;13.788;2023-05-12T20:46:29;101640.34;;;17.49;37.56
21449;BME280;10885;52.830;13.788;2023-05-12T20:51:50;101633.84;;;17.39;37.72
21449;BME280;10885;52.830;13.788;2023-05-12T20:57:11;101631.97;;;17.17;38.54
21449;BME280;10885;52.830;13.788;2023-05-12T21:02:32;101640.47;;;17.15;38.48
21449;BME280;10885;52.830;13.788;2023-05-12T21:07:53;101643.44;;;17.04;38.67
21449;BME280;10885;52.830;13.788;2023-05-12T21:13:14;101646.38;;;16.76;39.46
21449;BME280;10885;52.830;13.788;2023-05-12T21:18:36;101654.09;;;16.58;39.78
